Time;durP1;ratioP1;P1;durP2;ratioP2;P2;SDS_P1;SDS_P2;PMS_P1;PMS_P2;Temp;Humidity;BMP_temperature;BMP_pressure;BME280_temperature;BME280_humidity;BME280_pressure;Samples;Min_cycle;Max_cycle;Signal;HPM_P1;HPM_P2
2024/04/13 00:01:52;;;;;;;19.57;6.00;;;;;;;11.84;96.09;101322.67;1415644;92;22052;-83
2024/04/13 00:04:18;;;;;;;19.17;6.77;;;;;;;11.79;97.73;101320.91;1430172;91;21472;-84
2024/04/13 00:06:44;;;;;;;25.10;6.87;;;;;;;11.75;95.89;101324.31;1430641;91;21583;-84
2024/04/13 00:09:11;;;;;;;19.47;6.83;;;;;;;11.67;100.00;101331.59;1429656;91;21531;-83
2024/04/13 00:11:37;;;;;;;16.47;7.07;;;;;;;11.60;100.00;101327.81;1421381;92;21518;-83
2024/04/13 00:14:03;;;;;;;13.77;7.00;;;;;;;11.56;100.00;101325.05;1417256;92;21488;-84
2024/04/13 00:16:30;;;;;;;26.03;6.97;;;;;;;11.55;100.00;101323.39;1421076;92;21747;-83
2024/04/13 00:18:56;;;;;;;18.17;6.83;;;;;;;11.54;100.00;101325.69;1435395;91;21405;-83
2024/04/13 00:21:22;;;;;;;15.00;5.40;;;;;;;11.56;100.00;101326.38;1427134;91;21605;-83
2024/04/13 00:23:48;;;;;;;12.87;5.17;;;;;;;11.58;100.00;101327.59;1419729;91;21545;-83
2024/04/13 00:26:15;;;;;;;18.93;6.47;;;;;;;11.57;100.00;101330.73;1427412;91;21435;-83
2024/04/13 00:28:43;;;;;;;22.20;7.30;;;;;;;11.57;100.00;101325.42;1419168;92;22568;-82
2024/04/13 00:31:11;;;;;;;15.27;6.60;;;;;;;11.57;100.00;101318.80;1406725;91;21405;-83
2024/04/13 00:33:38;;;;;;;15.37;7.23;;;;;;;11.61;100.00;101320.69;1427760;91;21472;-81
2024/04/13 00:36:05;;;;;;;14.57;6.67;;;;;;;11.63;100.00;101313.45;1432691;91;22321;-83
2024/04/13 00:38:32;;;;;;;13.27;6.50;;;;;;;11.63;100.00;101318.27;1427049;91;21532;-81
2024/04/13 00:40:58;;;;;;;13.33;6.47;;;;;;;11.65;100.00;101316.33;1430850;91;21561;-81
2024/04/13 00:43:24;;;;;;;14.13;6.30;;;;;;;11.70;100.00;101315.42;1431532;91;22197;-82
2024/04/13 00:45:50;;;;;;;18.93;6.37;;;;;;;11.78;100.00;101313.93;1429646;91;21493;-82
2024/04/13 00:48:23;;;;;;;16.77;5.83;;;;;;;11.88;100.00;101312.17;1430490;91;21560;-82
2024/04/13 00:51:01;;;;;;;11.33;5.70;;;;;;;11.96;100.00;101309.69;1435175;91;21679;-81
2024/04/13 00:53:29;;;;;;;18.30;6.93;;;;;;;12.05;100.00;101311.52;1439754;91;21679;-82
2024/04/13 00:56:00;;;;;;;12.73;5.20;;;;;;;12.11;100.00;101306.16;1432511;91;21464;-80
2024/04/13 00:58:30;;;;;;;17.57;6.47;;;;;;;12.14;100.00;101305.89;1442991;91;22389;-81
2024/04/13 01:00:57;;;;;;;13.90;5.57;;;;;;;12.17;100.00;101298.52;1434348;91;21627;-81
2024/04/13 01:03:24;;;;;;;29.03;7.17;;;;;;;12.22;98.99;101303.89;1422127;91;21480;-81
2024/04/13 01:05:52;;;;;;;18.67;5.63;;;;;;;12.25;97.94;101292.99;1435679;91;21545;-81
2024/04/13 01:08:20;;;;;;;11.80;5.63;;;;;;;12.30;97.73;101300.06;1438896;90;21759;-82
2024/04/13 01:10:47;;;;;;;15.07;5.27;;;;;;;12.34;98.37;101297.47;1438622;90;21469;-81
2024/04/13 01:13:16;;;;;;;11.93;4.80;;;;;;;12.39;98.19;101293.92;1448230;90;21494;-81
2024/04/13 01:15:43;;;;;;;16.40;5.43;;;;;;;12.43;98.68;101292.69;1436286;90;21530;-82
2024/04/13 01:18:10;;;;;;;13.70;4.67;;;;;;;12.46;98.08;101289.75;1441012;90;21634;-81
2024/04/13 01:20:38;;;;;;;9.23;4.57;;;;;;;12.51;96.85;101288.82;1440822;90;21427;-82
2024/04/13 01:23:06;;;;;;;14.27;5.67;;;;;;;12.54;96.25;101291.20;1437154;90;21500;-81
2024/04/13 01:25:35;;;;;;;14.00;6.20;;;;;;;12.57;95.97;101288.75;1420303;90;21427;-81
2024/04/13 01:28:04;;;;;;;11.70;5.27;;;;;;;12.55;96.39;101287.58;1442682;90;21464;-81
2024/04/13 01:30:32;;;;;;;13.53;5.73;;;;;;;12.57;95.46;101293.60;1439282;90;21450;-80
2024/04/13 01:32:58;;;;;;;10.73;4.77;;;;;;;12.57;95.51;101286.96;1440925;90;21634;-82
2024/04/13 01:35:25;;;;;;;7.80;4.70;;;;;;;12.59;95.46;101286.31;1443048;90;21508;-82
2024/04/13 01:37:51;;;;;;;13.40;5.10;;;;;;;12.61;95.44;101280.38;1440616;90;21554;-82
2024/04/13 01:40:17;;;;;;;10.07;4.97;;;;;;;12.68;95.37;101278.48;1440519;90;21641;-82
2024/04/13 01:42:46;;;;;;;10.17;5.20;;;;;;;12.71;95.24;101272.89;1445822;90;21516;-82
2024/04/13 01:45:12;;;;;;;14.70;5.40;;;;;;;12.73;95.01;101273.11;1436273;90;22429;-80
2024/04/13 01:47:39;;;;;;;13.57;5.20;;;;;;;12.75;94.14;101272.98;1437190;90;21583;-81
2024/04/13 01:50:06;;;;;;;10.03;5.10;;;;;;;12.77;94.18;101271.83;1442982;90;21471;-81
2024/04/13 01:52:34;;;;;;;13.33;5.60;;;;;;;12.79;94.33;101270.38;1439939;90;21516;-81
2024/04/13 01:55:00;;;;;;;19.97;6.40;;;;;;;12.78;93.89;101272.20;1436343;90;21495;-81
2024/04/13 01:57:26;;;;;;;15.33;4.80;;;;;;;12.77;93.33;101274.48;1437296;90;21469;-81
2024/04/13 01:59:52;;;;;;;11.80;4.53;;;;;;;12.77;93.91;101273.66;1416404;90;21493;-81
2024/04/13 02:02:19;;;;;;;13.10;4.80;;;;;;;12.78;94.97;101276.67;1416698;90;21672;-82
2024/04/13 02:04:45;;;;;;;10.87;5.07;;;;;;;12.81;94.18;101275.06;1437300;90;21509;-81
2024/04/13 02:07:11;;;;;;;19.93;5.27;;;;;;;12.84;94.55;101278.77;1438561;90;21597;-80
2024/04/13 02:09:38;;;;;;;17.47;5.27;;;;;;;12.86;94.99;101270.17;1436994;90;22366;-82
2024/04/13 02:12:08;;;;;;;17.37;5.67;;;;;;;12.88;94.70;101273.50;1437680;90;21567;-81
2024/04/13 02:14:33;;;;;;;11.37;5.07;;;;;;;12.89;94.42;101273.87;1447428;90;21493;-86
2024/04/13 02:17:00;;;;;;;17.70;5.33;;;;;;;12.88;94.03;101272.17;1442323;90;21585;-82
2024/04/13 02:19:26;;;;;;;15.13;6.13;;;;;;;12.86;94.58;101274.99;1436788;90;21634;-81
2024/04/13 02:21:52;;;;;;;16.20;6.27;;;;;;;12.82;96.81;101272.75;1448660;90;21472;-83
2024/04/13 02:24:18;;;;;;;13.80;5.00;;;;;;;12.80;97.66;101274.23;1415171;90;22543;-82
2024/04/13 02:26:44;;;;;;;14.50;4.83;;;;;;;12.81;97.31;101267.09;1437835;90;21663;-82
2024/04/13 02:29:10;;;;;;;22.20;5.17;;;;;;;12.81;97.49;101264.44;1440172;90;21428;-82
2024/04/13 02:31:37;;;;;;;22.47;6.13;;;;;;;12.85;97.58;101267.14;1417653;90;22352;-82
2024/04/13 02:34:03;;;;;;;20.97;5.57;;;;;;;12.87;97.24;101266.03;1439722;90;21500;-82
2024/04/13 02:36:30;;;;;;;16.20;5.30;;;;;;;12.88;97.82;101261.55;1447048;90;21602;-82
2024/04/13 02:38:56;;;;;;;17.20;5.93;;;;;;;12.88;97.57;101266.86;1418717;90;21531;-82
2024/04/13 02:41:22;;;;;;;22.13;7.53;;;;;;;12.86;96.22;101267.02;1421809;90;21588;-82
2024/04/13 02:43:50;;;;;;;22.73;5.70;;;;;;;12.86;95.63;101260.87;1436702;90;21560;-83
2024/04/13 02:46:16;;;;;;;21.00;7.17;;;;;;;12.83;95.74;101272.62;1417788;90;22210;-82
2024/04/13 02:48:43;;;;;;;18.83;5.43;;;;;;;12.78;95.95;101266.05;1437109;90;21530;-83
2024/04/13 02:51:13;;;;;;;14.07;4.93;;;;;;;12.74;96.56;101273.44;1432617;90;21537;-83
2024/04/13 02:53:39;;;;;;;8.80;4.23;;;;;;;12.76;96.38;101268.00;1441837;90;21464;-83
2024/04/13 02:56:07;;;;;;;12.07;4.23;;;;;;;12.79;96.86;101272.53;1437553;90;21458;-84
2024/04/13 02:58:34;;;;;;;10.50;4.60;;;;;;;12.81;98.81;101275.06;1448233;90;22507;-81
2024/04/13 03:01:03;;;;;;;13.80;5.00;;;;;;;12.80;99.32;101273.37;1436409;90;21471;-83
2024/04/13 03:03:30;;;;;;;11.57;5.17;;;;;;;12.78;100.00;101278.84;1437632;90;22125;-82
2024/04/13 03:06:09;;;;;;;19.30;5.07;;;;;;;12.76;100.00;101275.97;1442371;90;22462;-81
2024/04/13 03:08:35;;;;;;;18.93;6.10;;;;;;;12.73;99.88;101273.11;1443411;90;21405;-82
2024/04/13 03:11:03;;;;;;;15.50;4.37;;;;;;;12.72;100.00;101278.58;1438918;90;21575;-81
2024/04/13 03:13:30;;;;;;;10.67;4.50;;;;;;;12.76;100.00;101275.97;1438738;90;21538;-80
2024/04/13 03:16:06;;;;;;;17.10;5.03;;;;;;;12.79;100.00;101279.17;1440651;90;21649;-80
2024/04/13 03:18:34;;;;;;;10.00;4.07;;;;;;;12.81;100.00;101279.05;1438769;90;21531;-81
2024/04/13 03:21:00;;;;;;;15.93;4.73;;;;;;;12.84;100.00;101281.42;1436148;90;22484;-82
2024/04/13 03:23:29;;;;;;;12.37;4.80;;;;;;;12.81;100.00;101275.90;1440771;90;21560;-81
2024/04/13 03:25:57;;;;;;;18.37;5.23;;;;;;;12.80;100.00;101280.87;1436627;90;21472;-81
2024/04/13 03:28:29;;;;;;;12.17;4.10;;;;;;;12.77;100.00;101276.31;1440449;90;21435;-81
2024/04/13 03:30:56;;;;;;;12.67;4.87;;;;;;;12.73;100.00;101283.73;1443631;90;21523;-80
2024/04/13 03:33:31;;;;;;;17.80;6.03;;;;;;;12.72;100.00;101285.22;1434959;90;22314;-84
2024/04/13 03:36:06;;;;;;;11.53;5.10;;;;;;;12.72;100.00;101289.20;1450891;90;21479;-83
2024/04/13 03:38:32;;;;;;;10.30;5.57;;;;;;;12.75;100.00;101286.26;1436632;90;21597;-82
2024/04/13 03:41:08;;;;;;;8.27;4.73;;;;;;;12.77;100.00;101296.23;1441661;90;22371;-83
2024/04/13 03:43:36;;;;;;;11.57;5.27;;;;;;;12.75;100.00;101295.55;1438071;90;21523;-84
2024/04/13 03:46:04;;;;;;;9.97;5.33;;;;;;;12.72;100.00;101294.02;1441384;90;23065;-83
2024/04/13 03:48:30;;;;;;;17.77;5.80;;;;;;;12.69;100.00;101291.64;1441002;90;21787;-82
2024/04/13 03:50:57;;;;;;;12.67;4.60;;;;;;;12.67;100.00;101289.61;1441178;90;21524;-83
2024/04/13 03:53:23;;;;;;;19.07;5.53;;;;;;;12.68;100.00;101291.27;1440765;90;21567;-83
2024/04/13 03:55:49;;;;;;;9.43;4.73;;;;;;;12.70;100.00;101285.34;1443262;90;21479;-83
2024/04/13 03:58:15;;;;;;;11.60;4.93;;;;;;;12.73;100.00;101286.88;1438979;90;21398;-83
2024/04/13 04:00:41;;;;;;;21.67;6.57;;;;;;;12.74;100.00;101288.05;1437499;90;21501;-83
2024/04/13 04:03:08;;;;;;;16.43;5.40;;;;;;;12.74;100.00;101285.39;1417706;90;22485;-83
2024/04/13 04:05:34;;;;;;;10.57;5.20;;;;;;;12.75;100.00;101288.42;1443169;90;21457;-83
2024/04/13 04:08:00;;;;;;;12.63;5.30;;;;;;;12.74;100.00;101279.25;1417341;90;21575;-83
2024/04/13 04:10:26;;;;;;;7.13;5.07;;;;;;;12.74;100.00;101279.25;1429132;90;21612;-83
2024/04/13 04:12:53;;;;;;;15.37;6.60;;;;;;;12.72;100.00;101279.91;1431067;91;21604;-83
2024/04/13 04:15:19;;;;;;;17.20;5.13;;;;;;;12.70;100.00;101281.84;1437016;91;21501;-83
2024/04/13 04:17:46;;;;;;;21.83;8.23;;;;;;;12.64;100.00;101293.38;1412337;91;21545;-82
2024/04/13 04:20:13;;;;;;;16.33;7.73;;;;;;;12.61;100.00;101289.67;1413362;91;22893;-84
2024/04/13 04:22:39;;;;;;;14.23;6.77;;;;;;;12.62;100.00;101296.66;1419607;91;22536;-84
2024/04/13 04:25:07;;;;;;;23.87;8.07;;;;;;;12.62;100.00;101294.00;1429117;91;21457;-84
2024/04/13 04:27:34;;;;;;;20.27;7.53;;;;;;;12.66;100.00;101291.92;1432465;91;21472;-84
2024/04/13 04:30:00;;;;;;;18.57;6.83;;;;;;;12.65;100.00;101299.03;1435022;91;21405;-84
2024/04/13 04:32:26;;;;;;;18.30;6.00;;;;;;;12.64;100.00;101307.98;1434700;91;21524;-84
2024/04/13 04:34:52;;;;;;;11.60;4.17;;;;;;;12.62;100.00;101310.42;1430955;91;21516;-84
2024/04/13 04:37:18;;;;;;;12.97;4.37;;;;;;;12.63;100.00;101311.63;1395398;91;21518;-83
2024/04/13 04:39:44;;;;;;;9.60;4.57;;;;;;;12.61;100.00;101306.94;1438650;91;21391;-84
2024/04/13 04:42:10;;;;;;;15.43;4.60;;;;;;;12.67;100.00;101311.34;1430445;91;22472;-84
2024/04/13 04:44:36;;;;;;;13.30;5.03;;;;;;;12.75;100.00;101318.13;1434783;91;21413;-82
2024/04/13 04:47:03;;;;;;;10.03;4.83;;;;;;;12.81;100.00;101318.89;1433312;91;22293;-84
2024/04/13 04:49:30;;;;;;;13.57;4.40;;;;;;;12.89;100.00;101312.39;1433022;91;21457;-83
2024/04/13 04:51:56;;;;;;;13.80;4.40;;;;;;;12.96;100.00;101312.16;1431426;91;21693;-84
2024/04/13 04:54:23;;;;;;;13.87;4.83;;;;;;;13.05;100.00;101317.95;1431542;91;22509;-85
2024/04/13 04:56:49;;;;;;;9.67;4.10;;;;;;;13.10;100.00;101319.70;1434755;91;21435;-84
2024/04/13 04:59:15;;;;;;;8.10;4.17;;;;;;;13.17;100.00;101317.30;1429959;91;21471;-84
2024/04/13 05:01:42;;;;;;;14.27;5.07;;;;;;;13.24;100.00;101317.59;1428858;91;21606;-85
2024/04/13 05:04:09;;;;;;;9.47;4.77;;;;;;;13.32;100.00;101320.38;1432629;91;21678;-83
2024/04/13 05:06:35;;;;;;;11.13;4.33;;;;;;;13.42;100.00;101325.19;1432923;91;22417;-84
2024/04/13 05:09:04;;;;;;;14.17;5.00;;;;;;;13.52;100.00;101326.02;1428880;91;21443;-84
2024/04/13 05:11:29;;;;;;;8.33;4.50;;;;;;;13.64;100.00;101325.34;1440627;90;22380;-84
2024/04/13 05:13:55;;;;;;;18.23;5.70;;;;;;;13.76;100.00;101329.98;1443344;90;21545;-85
2024/04/13 05:16:21;;;;;;;13.07;5.30;;;;;;;13.87;100.00;101332.95;1417885;90;21382;-84
2024/04/13 05:18:47;;;;;;;7.07;4.83;;;;;;;13.93;100.00;101333.20;1439444;90;21596;-83
2024/04/13 05:21:14;;;;;;;15.37;6.93;;;;;;;13.98;98.07;101340.25;1435294;90;21479;-85
2024/04/13 05:23:40;;;;;;;8.90;4.50;;;;;;;14.07;97.39;101349.64;1444745;90;22189;-80
2024/04/13 05:26:06;;;;;;;8.13;5.17;;;;;;;14.09;95.12;101355.66;1435320;90;22528;-80
2024/04/13 05:28:32;;;;;;;7.00;4.00;;;;;;;14.15;93.80;101355.90;1445456;90;21420;-82
2024/04/13 05:31:01;;;;;;;17.17;5.20;;;;;;;14.23;93.33;101360.49;1439613;90;21508;-79
2024/04/13 05:33:27;;;;;;;9.13;4.50;;;;;;;14.30;93.22;101364.25;1438363;90;21812;-80
2024/04/13 05:35:57;;;;;;;6.83;4.17;;;;;;;14.37;92.21;101363.16;1445889;90;21486;-79
2024/04/13 05:38:23;;;;;;;5.80;4.57;;;;;;;14.44;92.30;101365.55;1416885;90;21485;-80
2024/04/13 05:40:51;;;;;;;11.13;4.90;;;;;;;14.55;92.31;101355.21;1436509;90;21494;-80
2024/04/13 05:43:17;;;;;;;10.87;5.37;;;;;;;14.73;92.08;101362.73;1432181;90;21471;-79
2024/04/13 05:45:44;;;;;;;13.47;4.50;;;;;;;14.86;89.47;101361.01;1433622;90;22234;-80
2024/04/13 05:48:10;;;;;;;14.37;5.50;;;;;;;15.00;88.65;101364.47;1438503;90;21420;-80
2024/04/13 05:50:36;;;;;;;8.00;4.97;;;;;;;15.14;84.41;101362.26;1439970;90;21538;-79
2024/04/13 05:53:03;;;;;;;15.33;5.60;;;;;;;15.25;85.34;101362.02;1438777;90;21449;-79
2024/04/13 05:55:29;;;;;;;11.87;6.13;;;;;;;15.35;85.78;101367.56;1442638;90;22221;-79
2024/04/13 05:57:55;;;;;;;6.77;4.60;;;;;;;15.51;85.40;101371.36;1435977;90;21463;-80
2024/04/13 06:00:22;;;;;;;12.83;5.30;;;;;;;15.62;83.51;101371.57;1438261;90;21628;-80
2024/04/13 06:02:48;;;;;;;9.03;4.90;;;;;;;15.76;83.80;101371.02;1444890;90;22360;-77
2024/04/13 06:05:15;;;;;;;6.63;4.33;;;;;;;15.93;82.41;101365.27;1437966;90;21641;-79
2024/04/13 06:07:43;;;;;;;11.03;3.90;;;;;;;16.09;80.79;101361.34;1439243;90;22478;-79
2024/04/13 06:10:11;;;;;;;11.17;6.03;;;;;;;16.24;79.17;101362.39;1431128;90;21500;-81
2024/04/13 06:12:37;;;;;;;8.30;5.43;;;;;;;16.38;77.85;101353.43;1431436;91;22471;-79
2024/04/13 06:15:05;;;;;;;10.17;5.87;;;;;;;16.50;76.91;101349.44;1433980;91;21376;-81
2024/04/13 06:17:32;;;;;;;10.70;5.43;;;;;;;16.62;75.51;101349.45;1429214;91;21472;-80
2024/04/13 06:19:58;;;;;;;14.30;4.97;;;;;;;16.73;74.29;101345.64;1430336;91;22478;-80
2024/04/13 06:22:24;;;;;;;10.20;5.43;;;;;;;16.81;73.47;101344.84;1434234;91;21421;-80
2024/04/13 06:24:51;;;;;;;14.17;4.93;;;;;;;16.90;72.34;101341.17;1415778;91;21693;-80
2024/04/13 06:27:18;;;;;;;6.60;4.27;;;;;;;16.98;72.41;101337.16;1433934;91;21553;-80
2024/04/13 06:29:49;;;;;;;7.20;4.43;;;;;;;17.06;71.34;101333.16;1431522;91;21663;-80
2024/04/13 06:32:16;;;;;;;5.65;4.05;;;;;;;17.16;70.13;101340.16;1429939;91;21464;-80
2024/04/13 06:34:42;;;;;;;13.37;4.10;;;;;;;17.30;69.91;101340.81;1359303;91;21442;-80
2024/04/13 06:37:09;;;;;;;10.67;4.80;;;;;;;17.42;68.82;101347.48;1430217;91;22552;-80
2024/04/13 06:39:35;;;;;;;11.53;5.10;;;;;;;17.54;67.72;101352.80;1433660;91;21968;-80
2024/04/13 06:42:02;;;;;;;13.63;5.60;;;;;;;17.66;67.13;101355.95;1427696;91;21427;-79
2024/04/13 06:44:28;;;;;;;16.63;5.50;;;;;;;17.80;66.79;101361.13;1437199;91;22366;-79
2024/04/13 06:46:54;;;;;;;12.03;6.30;;;;;;;17.93;65.84;101365.95;1427882;91;21575;-79
2024/04/13 06:49:20;;;;;;;16.80;5.30;;;;;;;18.01;63.99;101364.08;1435597;91;21442;-79
2024/04/13 06:51:47;;;;;;;14.03;6.53;;;;;;;18.14;63.80;101360.00;1435696;91;21612;-79
2024/04/13 06:54:13;;;;;;;31.47;7.53;;;;;;;18.30;63.61;101369.80;1435261;91;21509;-79
2024/04/13 06:56:40;;;;;;;12.75;6.28;;;;;;;18.39;62.51;101370.11;1432454;91;21494;-77
2024/04/13 06:59:09;;;;;;;16.15;4.92;;;;;;;18.46;60.71;101377.75;1431419;91;21545;-78
2024/04/13 07:01:35;;;;;;;7.40;4.67;;;;;;;18.48;58.50;101380.59;1426470;91;21649;-79
2024/04/13 07:04:01;;;;;;;17.98;5.20;;;;;;;18.52;58.36;101380.23;1431166;91;21494;-78
2024/04/13 07:06:28;;;;;;;7.12;4.25;;;;;;;18.64;59.24;101378.81;1409966;91;22383;-79
2024/04/13 07:08:55;;;;;;;13.20;4.53;;;;;;;18.79;59.46;101382.45;1433242;91;21532;-78
2024/04/13 07:11:21;;;;;;;12.53;4.55;;;;;;;18.91;58.97;101383.70;1446726;90;21986;-80
2024/04/13 07:13:47;;;;;;;18.20;5.33;;;;;;;19.07;59.46;101385.41;1443204;90;21441;-78
2024/04/13 07:16:14;;;;;;;7.15;4.40;;;;;;;19.17;58.42;101382.48;1447162;90;21598;-79
2024/04/13 07:18:40;;;;;;;11.45;4.30;;;;;;;19.26;57.72;101377.88;1420496;90;21672;-78
2024/04/13 07:21:06;;;;;;;9.35;4.87;;;;;;;19.23;55.69;101381.77;1422970;90;21454;-79
2024/04/13 07:23:32;;;;;;;8.23;5.03;;;;;;;19.31;56.58;101380.35;1445636;90;21441;-80
2024/04/13 07:26:01;;;;;;;13.25;4.45;;;;;;;19.46;56.45;101371.49;1443563;90;21442;-79
2024/04/13 07:28:30;;;;;;;12.07;4.62;;;;;;;19.57;55.74;101376.42;1371152;90;21435;-78
2024/04/13 07:30:56;;;;;;;8.75;4.22;;;;;;;19.66;55.72;101373.99;1524839;90;21517;-78
2024/04/13 07:33:22;;;;;;;8.28;4.25;;;;;;;19.76;54.91;101369.16;1370443;90;21375;-78
2024/04/13 07:35:49;;;;;;;14.78;5.05;;;;;;;19.85;54.36;101372.59;1371530;90;21435;-80
2024/04/13 07:38:15;;;;;;;9.93;5.25;;;;;;;19.92;53.20;101368.16;1371052;90;21531;-80
2024/04/13 07:40:41;;;;;;;11.28;4.87;;;;;;;19.97;53.69;101370.30;1376045;90;21398;-79
2024/04/13 07:43:08;;;;;;;12.25;4.40;;;;;;;19.99;53.07;101369.06;1370675;90;22198;-79
2024/04/13 07:45:34;;;;;;;6.53;4.30;;;;;;;20.13;53.87;101364.70;1370682;90;22242;-79
2024/04/13 07:48:01;;;;;;;8.98;4.92;;;;;;;20.37;53.82;101367.59;1370413;90;21427;-80
2024/04/13 07:50:27;;;;;;;10.48;5.45;;;;;;;20.52;53.24;101362.17;1374486;90;21542;-78
2024/04/13 07:52:53;;;;;;;18.62;6.53;;;;;;;20.58;52.08;101360.09;1367442;90;21428;-78
2024/04/13 07:55:20;;;;;;;12.53;5.12;;;;;;;20.62;52.67;101360.53;1371058;90;21538;-80
2024/04/13 07:57:46;;;;;;;10.43;4.37;;;;;;;20.64;52.16;101362.53;1370320;90;21368;-79
2024/04/13 08:00:14;;;;;;;13.55;4.35;;;;;;;20.56;50.57;101359.44;1352950;91;21523;-79
2024/04/13 08:02:40;;;;;;;11.70;4.20;;;;;;;20.53;51.21;101358.48;1375396;90;21368;-79
2024/04/13 08:05:07;;;;;;;11.10;4.45;;;;;;;20.60;51.84;101355.36;1370906;90;21524;-78
2024/04/13 08:07:34;;;;;;;17.12;4.45;;;;;;;20.72;51.85;101351.66;1370217;90;21421;-83
2024/04/13 08:10:00;;;;;;;14.80;5.10;;;;;;;20.87;51.97;101344.85;1370298;90;21508;-85
2024/04/13 08:12:26;;;;;;;16.25;4.67;;;;;;;20.99;50.51;101345.98;1432698;90;21893;-83
2024/04/13 08:14:53;;;;;;;10.30;4.17;;;;;;;20.92;50.48;101342.42;1443075;90;21685;-84
2024/04/13 08:17:26;;;;;;;11.90;4.75;;;;;;;20.92;50.48;101342.42;1442985;90;22178;-84
2024/04/13 08:19:48;;;;;;;14.78;4.45;;;;;;;21.00;49.77;101353.02;1442458;90;21567;-82
2024/04/13 08:22:15;;;;;;;15.78;4.65;;;;;;;21.00;49.77;101353.02;1444859;90;21610;-84
2024/04/13 08:24:43;;;;;;;15.55;4.15;;;;;;;20.99;49.69;101354.06;1442780;90;21479;-83
2024/04/13 08:27:09;;;;;;;10.28;4.70;;;;;;;21.00;48.88;101351.67;1444487;90;21478;-83
2024/04/13 08:29:35;;;;;;;14.58;4.60;;;;;;;21.22;48.52;101350.31;1442758;90;21565;-82
2024/04/13 08:32:01;;;;;;;16.10;4.62;;;;;;;21.22;48.52;101350.31;1421529;90;21715;-83
2024/04/13 08:34:27;;;;;;;13.10;4.45;;;;;;;21.58;48.64;101336.21;1422778;90;21464;-84
2024/04/13 08:36:53;;;;;;;22.85;6.45;;;;;;;21.58;48.64;101336.21;1442313;90;21618;-83
2024/04/13 08:39:20;;;;;;;12.90;4.55;;;;;;;21.72;47.21;101340.30;1427014;90;21516;-84
2024/04/13 08:42:03;;;;;;;20.17;6.03;;;;;;;21.83;47.27;101339.23;1443315;90;22440;-85
2024/04/13 08:44:26;;;;;;;7.00;3.72;;;;;;;22.02;47.34;101336.32;1444995;90;22614;-85
2024/04/13 08:46:56;;;;;;;14.68;4.90;;;;;;;22.15;46.86;101329.31;1443389;90;21706;-85
2024/04/13 08:49:24;;;;;;;11.55;6.60;;;;;;;22.25;46.48;101327.11;1443920;90;21449;-86
2024/04/13 08:51:51;;;;;;;16.23;4.60;;;;;;;22.43;46.57;101326.00;1444420;90;22565;-84
2024/04/13 08:54:17;;;;;;;10.85;5.20;;;;;;;22.53;46.00;101326.97;1445448;90;21501;-84
2024/04/13 08:56:47;;;;;;;11.60;4.72;;;;;;;22.71;45.95;101323.67;1443441;90;21625;-82
2024/04/13 08:59:14;;;;;;;15.32;4.87;;;;;;;22.72;44.85;101309.13;1442611;90;21486;-84
2024/04/13 09:01:47;;;;;;;11.12;4.90;;;;;;;22.81;45.17;101305.19;1441493;90;21485;-85
2024/04/13 09:04:15;;;;;;;14.68;5.35;;;;;;;22.96;45.46;101307.73;1443109;90;21471;-84
2024/04/13 09:06:43;;;;;;;13.83;4.40;;;;;;;23.09;45.51;101306.36;1444800;90;22358;-84
2024/04/13 09:09:10;;;;;;;16.65;5.15;;;;;;;23.25;45.14;101302.41;1443178;90;21692;-83
2024/04/13 09:11:38;;;;;;;14.58;5.90;;;;;;;23.24;44.04;101297.21;1374766;90;21502;-81
2024/04/13 09:14:04;;;;;;;9.38;4.47;;;;;;;23.33;44.26;101302.20;1370255;90;22272;-82
2024/04/13 09:16:32;;;;;;;13.05;4.45;;;;;;;23.45;43.43;101297.47;1370348;90;21301;-82
2024/04/13 09:18:59;;;;;;;16.40;4.97;;;;;;;23.57;43.46;101291.22;1369341;90;21368;-83
2024/04/13 09:21:27;;;;;;;12.40;4.20;;;;;;;23.67;43.34;101283.18;1370632;90;21331;-82
2024/04/13 09:23:55;;;;;;;13.50;3.70;;;;;;;23.80;42.69;101283.99;1502846;90;21626;-82
2024/04/13 09:26:22;;;;;;;16.97;3.87;;;;;;;23.87;42.75;101274.50;1445684;90;21596;-83
2024/04/13 09:28:49;;;;;;;13.55;3.90;;;;;;;23.96;42.66;101273.73;1443897;90;22307;-80
2024/04/13 09:31:18;;;;;;;16.05;5.62;;;;;;;24.11;42.34;101278.34;1441549;90;21530;-81
2024/04/13 09:33:50;;;;;;;9.65;3.40;;;;;;;24.24;42.08;101266.08;1374415;90;22258;-83
2024/04/13 09:36:24;;;;;;;15.58;3.92;;;;;;;24.22;41.69;101269.52;1367722;90;21338;-82
2024/04/13 09:38:53;;;;;;;21.00;3.17;;;;;;;24.25;41.53;101260.14;1524849;90;21554;-84
2024/04/13 09:41:19;;;;;;;6.60;2.87;;;;;;;24.04;40.67;101258.08;1373624;90;21472;-85
2024/04/13 09:43:51;;;;;;;12.73;3.75;;;;;;;23.99;40.84;101258.42;1524834;90;21346;-84
2024/04/13 09:46:18;;;;;;;12.30;3.10;;;;;;;23.90;40.99;101259.72;1421767;90;21463;-86
2024/04/13 09:48:45;;;;;;;4.85;3.30;;;;;;;24.00;41.16;101256.87;1444835;90;21486;-84
2024/04/13 09:51:11;;;;;;;8.30;3.52;;;;;;;24.10;41.17;101245.57;1444230;90;21442;-83
2024/04/13 09:53:38;;;;;;;9.10;3.62;;;;;;;24.19;40.94;101245.61;1439805;90;21714;-84
2024/04/13 09:56:05;;;;;;;13.80;3.75;;;;;;;24.27;40.46;101248.06;1443369;90;21543;-84
2024/04/13 09:58:32;;;;;;;9.00;3.95;;;;;;;24.40;40.65;101243.59;1446426;90;22470;-84
2024/04/13 10:01:04;;;;;;;9.33;3.98;;;;;;;24.50;40.35;101238.57;1441690;90;21486;-84
2024/04/13 10:03:31;;;;;;;6.70;3.35;;;;;;;24.58;39.69;101234.24;1443767;90;21582;-85
2024/04/13 10:06:00;;;;;;;15.28;4.03;;;;;;;24.58;39.85;101230.18;1423133;90;22394;-86
2024/04/13 10:08:30;;;;;;;13.28;3.42;;;;;;;24.64;39.33;101232.00;1422272;90;21449;-86
2024/04/13 10:10:59;;;;;;;10.28;3.02;;;;;;;24.69;39.55;101224.05;1445629;90;22462;-86
2024/04/13 10:13:36;;;;;;;9.55;3.40;;;;;;;24.77;39.22;101233.75;1425365;90;21671;-86
2024/04/13 10:16:04;;;;;;;10.48;3.15;;;;;;;24.84;38.95;101221.00;1445235;90;21589;-86
2024/04/13 10:18:31;;;;;;;13.62;3.77;;;;;;;24.91;39.23;101215.51;1433248;91;21450;-85
2024/04/13 10:21:02;;;;;;;8.38;3.22;;;;;;;24.99;38.87;101215.22;1436875;91;21486;-85
2024/04/13 10:23:38;;;;;;;5.75;3.08;;;;;;;25.02;39.00;101217.48;1433909;91;21724;-84
2024/04/13 10:26:05;;;;;;;10.40;3.92;;;;;;;25.04;38.15;101220.80;1434947;90;21531;-84
2024/04/13 10:28:32;;;;;;;11.73;2.95;;;;;;;25.01;38.30;101214.48;1416184;91;21486;-85
2024/04/13 10:30:58;;;;;;;6.97;2.75;;;;;;;25.13;39.09;101209.14;1432942;91;22330;-84
2024/04/13 10:33:32;;;;;;;9.70;3.15;;;;;;;25.12;38.19;101200.73;1436594;91;21708;-84
2024/04/13 10:36:05;;;;;;;6.47;2.80;;;;;;;25.23;38.42;101197.81;1438388;91;22420;-83
2024/04/13 10:38:34;;;;;;;13.43;3.05;;;;;;;25.29;37.79;101204.52;1434892;91;21501;-83
2024/04/13 10:41:02;;;;;;;13.58;2.83;;;;;;;25.30;37.58;101207.52;1435903;90;21523;-84
2024/04/13 10:43:29;;;;;;;11.22;2.85;;;;;;;25.32;37.56;101197.80;1435920;91;21479;-85
2024/04/13 10:46:01;;;;;;;5.85;2.87;;;;;;;25.40;37.68;101192.08;1405106;92;21497;-85
2024/04/13 10:48:30;;;;;;;11.15;2.47;;;;;;;25.50;37.63;101192.38;1452916;89;21449;-82
2024/04/13 10:50:58;;;;;;;5.53;2.37;;;;;;;25.55;36.82;101188.47;1454447;89;22225;-83
2024/04/13 10:53:27;;;;;;;5.42;2.37;;;;;;;25.54;37.08;101192.74;1456675;89;21530;-84
2024/04/13 10:55:57;;;;;;;5.25;2.30;;;;;;;25.58;37.13;101185.83;1454345;89;21603;-84
2024/04/13 10:58:28;;;;;;;;;;;;;;;25.63;37.07;101188.12;1457025;89;21486;-83
2024/04/13 11:00:54;;;;;;;3.15;2.20;;;;;;;25.55;35.75;101188.97;1454414;89;20285;-85
2024/04/13 11:03:20;;;;;;;11.15;3.05;;;;;;;25.63;36.98;101185.95;1455791;89;22555;-84
2024/04/13 11:05:47;;;;;;;11.75;2.87;;;;;;;25.75;36.77;101188.70;1455709;89;21404;-85
2024/04/13 11:08:13;;;;;;;8.18;2.60;;;;;;;25.81;36.71;101183.74;1452890;89;21405;-85
2024/04/13 11:10:42;;;;;;;5.78;3.10;;;;;;;25.79;36.02;101185.84;1453616;89;21568;-84
2024/04/13 11:13:09;;;;;;;5.47;2.65;;;;;;;25.85;36.41;101179.53;1451603;89;22359;-87
2024/04/13 11:15:35;;;;;;;5.87;2.35;;;;;;;25.92;36.15;101174.82;1447157;90;21517;-85
2024/04/13 11:18:02;;;;;;;8.70;2.37;;;;;;;25.99;35.69;101175.56;1447583;90;21649;-86